Time;durP1;ratioP1;P1;durP2;ratioP2;P2;SDS_P1;SDS_P2;PMS_P1;PMS_P2;Temp;Humidity;BMP_temperature;BMP_pressure;BME280_temperature;BME280_humidity;BME280_pressure;Samples;Min_cycle;Max_cycle;Signal;HPM_P1;HPM_P2
2023/03/11 00:00:38;;;;;;;52.38;25.75;;;;;;;-0.99;100.00;98256.13;6212844;23;20586;-61
2023/03/11 00:03:06;;;;;;;49.60;25.17;;;;;;;-1.09;100.00;98272.00;6213841;23;20044;-61
2023/03/11 00:05:36;;;;;;;46.63;24.60;;;;;;;-1.15;100.00;98278.66;6212679;23;20031;-62
2023/03/11 00:08:04;;;;;;;49.72;25.67;;;;;;;-1.03;100.00;98292.44;6210906;23;20043;-64
2023/03/11 00:10:34;;;;;;;47.58;24.48;;;;;;;-1.11;100.00;98302.88;6214714;23;20021;-61
2023/03/11 00:13:01;;;;;;;41.50;23.67;;;;;;;-1.23;100.00;98309.28;6213762;23;20404;-62
2023/03/11 00:15:29;;;;;;;49.20;22.92;;;;;;;-1.20;100.00;98317.72;6213440;23;20017;-64
2023/03/11 00:17:56;;;;;;;45.33;23.83;;;;;;;-1.27;100.00;98321.06;6212662;23;20088;-62
2023/03/11 00:20:29;;;;;;;45.95;23.88;;;;;;;-1.36;100.00;98329.84;6212716;23;20031;-62
2023/03/11 00:22:56;;;;;;;39.72;23.05;;;;;;;-1.27;100.00;98336.84;6213300;23;20024;-61
2023/03/11 00:25:25;;;;;;;41.42;23.30;;;;;;;-1.27;100.00;98337.69;6186081;23;20028;-62
2023/03/11 00:27:52;;;;;;;44.58;23.30;;;;;;;-1.19;100.00;98347.50;6210952;23;21023;-60
2023/03/11 00:30:20;;;;;;;38.08;21.48;;;;;;;-1.23;100.00;98349.59;6212790;23;20108;-61
2023/03/11 00:32:47;;;;;;;38.38;21.20;;;;;;;-1.45;100.00;98357.81;6212199;23;20020;-61
2023/03/11 00:35:17;;;;;;;36.08;21.20;;;;;;;-1.52;100.00;98364.59;6212977;23;20032;-62
2023/03/11 00:37:46;;;;;;;37.65;21.15;;;;;;;-1.55;100.00;98363.06;6212456;23;20024;-63
2023/03/11 00:40:18;;;;;;;36.83;20.77;;;;;;;-1.62;100.00;98364.59;6213389;23;20024;-62
2023/03/11 00:42:44;;;;;;;36.25;20.52;;;;;;;-1.59;100.00;98371.41;6212723;23;20324;-62
2023/03/11 00:45:12;;;;;;;36.53;20.63;;;;;;;-1.73;100.00;98380.53;6190736;23;20020;-62
2023/03/11 00:47:38;;;;;;;38.13;21.77;;;;;;;-1.64;100.00;98377.09;6194048;23;20030;-63
2023/03/11 00:50:08;;;;;;;43.75;23.70;;;;;;;-1.49;100.00;98386.19;6212280;23;20395;-61
2023/03/11 00:52:35;;;;;;;36.05;21.38;;;;;;;-1.65;100.00;98391.16;6211533;23;20028;-61
2023/03/11 00:55:01;;;;;;;39.42;23.08;;;;;;;-1.52;100.00;98396.97;6213196;23;20027;-61
2023/03/11 00:57:28;;;;;;;43.15;25.13;;;;;;;-1.57;100.00;98403.66;6212581;23;20051;-62
2023/03/11 00:59:54;;;;;;;41.92;24.45;;;;;;;-1.65;100.00;98413.03;6212909;23;20021;-61
2023/03/11 01:02:22;;;;;;;39.30;23.88;;;;;;;-1.71;100.00;98415.41;6211393;23;20024;-63
2023/03/11 01:04:54;;;;;;;43.70;26.55;;;;;;;-1.67;100.00;98427.31;6211442;23;20031;-62
2023/03/11 01:07:21;;;;;;;41.72;24.65;;;;;;;-1.71;100.00;98439.06;6212037;23;20055;-63
2023/03/11 01:09:48;;;;;;;40.90;25.50;;;;;;;-1.78;100.00;98440.56;6212615;23;20040;-62
2023/03/11 01:12:15;;;;;;;41.40;26.08;;;;;;;-1.64;100.00;98455.94;6210812;23;20343;-62
2023/03/11 01:14:41;;;;;;;44.72;27.20;;;;;;;-1.70;100.00;98453.88;6211431;23;20024;-61
2023/03/11 01:17:08;;;;;;;45.17;27.38;;;;;;;-1.69;100.00;98466.84;6212077;23;20042;-62
2023/03/11 01:19:34;;;;;;;45.95;26.98;;;;;;;-1.71;100.00;98471.44;6210723;23;20020;-62
2023/03/11 01:22:01;;;;;;;44.10;27.35;;;;;;;-1.60;100.00;98481.00;6211254;23;20469;-61
2023/03/11 01:24:27;;;;;;;44.67;27.98;;;;;;;-1.54;100.00;98492.75;6210509;23;20078;-61
2023/03/11 01:26:54;;;;;;;40.45;24.67;;;;;;;-1.59;100.00;98508.09;6210299;23;20105;-61
2023/03/11 01:29:20;;;;;;;39.75;24.23;;;;;;;-1.66;100.00;98508.66;6210504;23;20031;-63
2023/03/11 01:31:47;;;;;;;39.13;25.63;;;;;;;-1.58;100.00;98513.22;6210902;23;20021;-61
2023/03/11 01:34:13;;;;;;;34.65;22.67;;;;;;;-1.81;100.00;98522.34;6210795;23;20469;-61
2023/03/11 01:36:39;;;;;;;34.67;22.00;;;;;;;-1.87;100.00;98529.78;6210603;23;20039;-62
2023/03/11 01:39:06;;;;;;;31.73;19.73;;;;;;;-1.83;100.00;98532.16;6211541;23;20150;-62
2023/03/11 01:41:33;;;;;;;25.40;16.65;;;;;;;-1.73;100.00;98533.81;6212109;23;20016;-62
2023/03/11 01:43:59;;;;;;;25.05;16.27;;;;;;;-1.89;100.00;98546.63;6210099;23;20029;-62
2023/03/11 01:46:40;;;;;;;25.60;15.57;;;;;;;-1.90;100.00;98556.31;6210611;23;20331;-61
2023/03/11 01:49:11;;;;;;;23.07;14.63;;;;;;;-1.85;100.00;98569.09;6209026;23;20086;-61
2023/03/11 01:51:41;;;;;;;19.80;12.75;;;;;;;-1.92;100.00;98571.41;6209520;23;20084;-63
2023/03/11 01:54:12;;;;;;;19.85;12.77;;;;;;;-1.74;100.00;98581.28;6211181;23;20083;-62
2023/03/11 01:56:40;;;;;;;13.95;9.35;;;;;;;-1.92;100.00;98589.81;6208507;23;20017;-60
2023/03/11 01:59:10;;;;;;;13.20;8.90;;;;;;;-1.82;100.00;98595.06;6211364;23;20020;-61
2023/03/11 02:01:44;;;;;;;11.57;7.70;;;;;;;-1.91;100.00;98609.84;6210540;23;20048;-61
2023/03/11 02:04:12;;;;;;;10.85;6.03;;;;;;;-1.82;100.00;98610.84;6211331;23;20017;-61
2023/03/11 02:07:14;;;;;;;8.43;5.40;;;;;;;-1.82;100.00;98620.53;6210115;23;20027;-61
2023/03/11 02:09:40;;;;;;;10.38;5.32;;;;;;;-1.90;100.00;98631.72;6211777;23;20687;-61
2023/03/11 02:12:11;;;;;;;6.35;4.40;;;;;;;-1.95;100.00;98641.81;6213075;23;20021;-61
2023/03/11 02:14:42;;;;;;;6.47;4.60;;;;;;;-1.79;100.00;98651.81;6212795;23;20354;-66
2023/03/11 02:17:09;;;;;;;5.93;3.88;;;;;;;-1.86;100.00;98662.00;6203638;23;20108;-62
2023/03/11 02:19:58;;;;;;;5.35;3.78;;;;;;;-1.88;100.00;98669.22;6212252;23;20016;-64
2023/03/11 02:22:27;;;;;;;6.20;4.15;;;;;;;-1.77;100.00;98686.69;6209585;23;20020;-62
2023/03/11 02:25:04;;;;;;;5.25;3.42;;;;;;;-1.94;100.00;98698.63;6208033;23;20119;-64
2023/03/11 02:27:35;;;;;;;6.25;4.13;;;;;;;-1.93;100.00;98713.44;6209884;23;20020;-63
2023/03/11 02:30:02;;;;;;;6.03;4.20;;;;;;;-1.69;100.00;98715.78;6209872;23;20095;-62
2023/03/11 02:32:28;;;;;;;5.65;3.92;;;;;;;-1.74;100.00;98723.25;6183892;23;20477;-63
2023/03/11 02:34:55;;;;;;;7.20;4.57;;;;;;;-1.76;100.00;98725.97;6210513;23;20096;-63
2023/03/11 02:37:22;;;;;;;5.72;4.05;;;;;;;-1.82;100.00;98737.00;6210034;23;20031;-62
2023/03/11 02:39:51;;;;;;;5.03;3.95;;;;;;;-1.78;100.00;98750.72;6204520;23;20024;-62
2023/03/11 02:42:30;;;;;;;6.78;4.25;;;;;;;-1.76;100.00;98760.16;6211139;23;20017;-64
2023/03/11 02:45:03;;;;;;;5.13;4.07;;;;;;;-1.81;100.00;98774.66;6211034;23;20027;-63
2023/03/11 02:47:30;;;;;;;5.68;4.18;;;;;;;-1.83;100.00;98793.19;6211908;23;20024;-64
2023/03/11 02:49:56;;;;;;;6.85;4.38;;;;;;;-1.90;100.00;98790.22;6199367;23;20445;-63
2023/03/11 02:52:32;;;;;;;6.00;4.10;;;;;;;-1.82;100.00;98804.50;6204822;23;20031;-63
2023/03/11 02:54:58;;;;;;;6.57;4.72;;;;;;;-1.90;100.00;98811.25;6212681;23;20349;-63
2023/03/11 02:57:25;;;;;;;5.30;4.13;;;;;;;-1.77;100.00;98815.50;6210528;23;20475;-62
2023/03/11 02:59:52;;;;;;;6.07;4.35;;;;;;;-1.83;100.00;98829.13;6211660;23;20013;-62
2023/03/11 03:02:19;;;;;;;7.13;5.13;;;;;;;-1.84;100.00;98838.00;6211547;23;20401;-63
2023/03/11 03:04:45;;;;;;;7.93;4.78;;;;;;;-1.87;100.00;98839.91;6211072;23;20392;-62
2023/03/11 03:07:12;;;;;;;7.03;4.93;;;;;;;-1.70;100.00;98853.44;6211743;23;20016;-62
2023/03/11 03:09:38;;;;;;;7.68;5.47;;;;;;;-1.82;100.00;98854.47;6212624;23;20020;-62
2023/03/11 03:12:05;;;;;;;7.30;5.50;;;;;;;-1.77;100.00;98865.44;6211946;23;20027;-62
2023/03/11 03:14:32;;;;;;;8.95;5.68;;;;;;;-1.90;100.00;98886.63;6210429;23;20091;-64
2023/03/11 03:16:58;;;;;;;7.78;5.82;;;;;;;-1.72;100.00;98900.88;6210811;23;20021;-63
2023/03/11 03:19:25;;;;;;;8.05;5.85;;;;;;;-1.89;100.00;98910.19;6210409;23;20334;-62
2023/03/11 03:21:51;;;;;;;7.70;5.60;;;;;;;-1.78;100.00;98909.31;6210150;23;20020;-62
2023/03/11 03:24:18;;;;;;;7.25;5.38;;;;;;;-1.79;100.00;98920.75;6206979;23;20035;-63
2023/03/11 03:26:45;;;;;;;7.00;5.38;;;;;;;-1.84;100.00;98938.72;6204650;23;20384;-63
2023/03/11 03:29:11;;;;;;;6.68;5.18;;;;;;;-2.08;100.00;98938.06;6210831;23;20345;-63
2023/03/11 03:31:38;;;;;;;7.63;5.65;;;;;;;-2.14;100.00;98944.63;6212114;23;20369;-63
2023/03/11 03:34:05;;;;;;;7.97;5.82;;;;;;;-2.08;100.00;98959.91;6211229;23;20051;-63
2023/03/11 03:36:32;;;;;;;8.38;5.95;;;;;;;-1.98;100.00;98963.47;6210887;23;20024;-63
2023/03/11 03:38:59;;;;;;;8.02;6.13;;;;;;;-2.00;100.00;98978.53;6211081;23;20024;-61
2023/03/11 03:41:26;;;;;;;9.13;6.75;;;;;;;-1.97;100.00;98987.97;6211272;23;20031;-63
2023/03/11 03:43:53;;;;;;;10.32;6.60;;;;;;;-1.90;100.00;98997.84;6210881;23;20031;-61
2023/03/11 03:46:20;;;;;;;11.40;7.60;;;;;;;-1.99;100.00;99019.63;6208491;23;20025;-61
2023/03/11 03:48:47;;;;;;;10.52;7.32;;;;;;;-1.90;100.00;99016.25;6204616;23;20020;-62
2023/03/11 03:51:14;;;;;;;12.07;7.53;;;;;;;-2.00;100.00;99025.00;6210589;23;20043;-61
2023/03/11 03:53:41;;;;;;;12.30;7.38;;;;;;;-2.03;100.00;99036.56;6211617;23;20377;-61
2023/03/11 03:56:10;;;;;;;11.40;7.43;;;;;;;-1.87;100.00;99038.84;6211524;23;20016;-63
2023/03/11 03:58:37;;;;;;;11.30;7.95;;;;;;;-1.98;100.00;99052.81;6209626;23;20100;-63
2023/03/11 04:01:05;;;;;;;11.05;7.43;;;;;;;-1.98;100.00;99052.81;6210708;23;20024;-62
2023/03/11 04:03:33;;;;;;;12.93;8.07;;;;;;;-1.99;100.00;99060.81;6184108;23;20442;-63
2023/03/11 04:06:18;;;;;;;13.05;7.95;;;;;;;-1.94;100.00;99070.03;6211209;23;20021;-62
2023/03/11 04:08:45;;;;;;;13.60;7.97;;;;;;;-1.96;100.00;99074.56;6184185;23;20365;-62
2023/03/11 04:11:12;;;;;;;12.32;7.75;;;;;;;-1.95;100.00;99089.38;6187480;23;20346;-63
2023/03/11 04:13:39;;;;;;;12.70;8.23;;;;;;;-1.86;100.00;99100.94;6211236;23;20458;-61
2023/03/11 04:16:06;;;;;;;12.93;8.90;;;;;;;-1.85;100.00;99100.00;6211167;23;20028;-63
2023/03/11 04:18:34;;;;;;;13.45;8.55;;;;;;;-1.91;100.00;99106.56;6211485;23;20187;-62
2023/03/11 04:21:05;;;;;;;11.25;7.90;;;;;;;-1.86;100.00;99117.56;6201362;23;20078;-62
2023/03/11 04:23:32;;;;;;;13.00;8.68;;;;;;;-1.80;100.00;99118.03;6210956;23;20104;-62
2023/03/11 04:25:59;;;;;;;13.27;8.98;;;;;;;-1.96;100.00;99128.91;6210160;23;20031;-63
2023/03/11 04:28:26;;;;;;;14.00;8.02;;;;;;;-1.81;100.00;99132.16;6210798;23;20103;-63
2023/03/11 04:30:52;;;;;;;11.93;8.20;;;;;;;-1.85;100.00;99136.81;6203859;23;20364;-63
2023/03/11 04:33:19;;;;;;;10.50;7.40;;;;;;;-1.95;100.00;99136.69;6211045;23;20051;-63
2023/03/11 04:35:46;;;;;;;10.40;7.45;;;;;;;-1.90;100.00;99141.56;6207846;23;20020;-64
2023/03/11 04:38:12;;;;;;;10.50;7.05;;;;;;;-1.89;100.00;99154.63;6211231;23;20020;-62
2023/03/11 04:40:39;;;;;;;9.27;6.43;;;;;;;-1.89;100.00;99157.25;6211929;23;20093;-62
2023/03/11 04:43:05;;;;;;;8.38;5.88;;;;;;;-1.95;100.00;99162.97;6209464;23;20350;-61
2023/03/11 04:45:32;;;;;;;7.00;4.97;;;;;;;-1.86;100.00;99180.63;6211104;23;20024;-63
2023/03/11 04:47:58;;;;;;;8.27;5.65;;;;;;;-1.79;100.00;99186.25;6210121;23;20091;-62
2023/03/11 04:50:25;;;;;;;8.02;5.20;;;;;;;-1.95;100.00;99191.88;6209839;23;20408;-62
2023/03/11 04:52:52;;;;;;;7.43;4.82;;;;;;;-1.95;100.00;99199.75;6210055;23;20016;-62
2023/03/11 04:55:18;;;;;;;5.93;4.05;;;;;;;-2.01;100.00;99200.22;6211167;23;20048;-62
2023/03/11 04:57:45;;;;;;;6.88;4.95;;;;;;;-1.92;100.00;99215.31;6211318;23;20024;-64
2023/03/11 05:00:14;;;;;;;7.22;4.38;;;;;;;-2.06;100.00;99206.78;6211928;23;20027;-61
2023/03/11 05:02:41;;;;;;;6.07;4.72;;;;;;;-1.92;100.00;99228.44;6211954;23;20118;-61
2023/03/11 05:05:08;;;;;;;6.07;4.45;;;;;;;-2.03;100.00;99227.56;6203535;23;20103;-62
2023/03/11 05:07:36;;;;;;;6.68;4.82;;;;;;;-2.03;100.00;99238.91;6198290;23;20028;-61
2023/03/11 05:10:03;;;;;;;6.70;4.70;;;;;;;-1.99;100.00;99245.63;6195194;23;20349;-61
2023/03/11 05:12:30;;;;;;;5.88;4.75;;;;;;;-1.99;100.00;99256.16;6209768;23;20025;-61
2023/03/11 05:14:56;;;;;;;8.00;4.78;;;;;;;-1.99;100.00;99255.28;6209446;23;20023;-61
2023/03/11 05:17:23;;;;;;;7.45;5.22;;;;;;;-1.97;100.00;99269.16;6210559;23;20107;-62
2023/03/11 05:19:52;;;;;;;6.93;4.78;;;;;;;-1.91;100.00;99272.16;6210553;23;20047;-63
2023/03/11 05:22:20;;;;;;;5.60;4.20;;;;;;;-1.95;100.00;99278.63;6210087;23;20042;-62
2023/03/11 05:24:47;;;;;;;6.47;5.10;;;;;;;-1.91;100.00;99287.09;6211032;23;20104;-62
2023/03/11 05:27:16;;;;;;;6.53;4.85;;;;;;;-1.90;100.00;99297.50;6209641;23;20025;-63
2023/03/11 05:29:44;;;;;;;5.80;4.88;;;;;;;-1.79;100.00;99303.72;6208830;23;20048;-62
2023/03/11 05:32:11;;;;;;;7.18;5.30;;;;;;;-1.93;100.00;99297.72;6210330;23;20099;-61
2023/03/11 05:34:38;;;;;;;7.78;5.72;;;;;;;-1.92;100.00;99320.44;6208855;23;21432;-63
2023/03/11 05:37:05;;;;;;;9.50;5.75;;;;;;;-1.98;100.00;99317.44;6208990;23;20043;-63
2023/03/11 05:39:32;;;;;;;7.18;5.38;;;;;;;-1.87;100.00;99323.53;6209883;23;20027;-63
2023/03/11 05:41:58;;;;;;;7.85;5.30;;;;;;;-1.99;100.00;99334.13;6183343;23;20023;-63
2023/03/11 05:44:25;;;;;;;9.15;6.30;;;;;;;-1.83;100.00;99342.56;6210172;23;20031;-62
2023/03/11 05:46:51;;;;;;;9.13;6.18;;;;;;;-2.02;100.00;99348.34;6210108;23;20026;-63
2023/03/11 05:49:20;;;;;;;7.88;5.82;;;;;;;-1.86;100.00;99348.03;6210801;23;20029;-62
2023/03/11 05:51:47;;;;;;;8.45;6.18;;;;;;;-2.02;100.00;99358.03;6208813;23;20095;-62
2023/03/11 05:54:14;;;;;;;9.52;6.45;;;;;;;-1.88;100.00;99363.09;6210348;23;20027;-62
2023/03/11 05:56:42;;;;;;;11.00;6.60;;;;;;;-1.90;100.00;99363.19;6209360;23;20016;-62
2023/03/11 05:59:10;;;;;;;9.77;6.57;;;;;;;-1.87;100.00;99376.13;6211505;23;20212;-61
2023/03/11 06:01:38;;;;;;;9.98;6.32;;;;;;;-1.79;100.00;99374.72;6209504;23;20016;-62
2023/03/11 06:04:04;;;;;;;12.93;6.32;;;;;;;-1.75;100.00;99370.88;6209917;23;20021;-62
2023/03/11 06:06:31;;;;;;;7.97;6.25;;;;;;;-1.87;100.00;99385.81;6208859;23;20052;-62
2023/03/11 06:08:58;;;;;;;10.75;6.70;;;;;;;-1.68;100.00;99382.63;6178049;23;20472;-62
2023/03/11 06:11:25;;;;;;;10.30;7.28;;;;;;;-1.69;100.00;99392.31;6209583;23;20020;-62
2023/03/11 06:13:56;;;;;;;12.27;7.22;;;;;;;-1.78;100.00;99398.28;6203935;23;20047;-63
2023/03/11 06:16:24;;;;;;;7.75;5.25;;;;;;;-1.81;100.00;99405.56;6209692;23;20361;-62
2023/03/11 06:18:51;;;;;;;12.00;7.65;;;;;;;-1.68;100.00;99406.28;6208976;23;20453;-62
2023/03/11 06:21:23;;;;;;;11.18;7.03;;;;;;;-1.63;100.00;99406.81;6213100;23;20024;-63
2023/03/11 06:23:49;;;;;;;11.93;8.25;;;;;;;-1.87;100.00;99415.53;6211857;23;20043;-65
2023/03/11 06:26:19;;;;;;;11.45;7.10;;;;;;;-1.76;100.00;99429.69;6213114;23;20099;-62
2023/03/11 06:28:46;;;;;;;18.50;8.20;;;;;;;-1.81;100.00;99427.41;6212606;23;20020;-62
2023/03/11 06:31:19;;;;;;;15.68;7.80;;;;;;;-1.78;100.00;99434.22;6210927;23;20024;-62
2023/03/11 06:33:47;;;;;;;12.63;7.90;;;;;;;-1.96;100.00;99439.03;6211075;23;20020;-63
2023/03/11 06:36:15;;;;;;;11.75;8.38;;;;;;;-1.96;100.00;99450.38;6198339;23;20346;-62
2023/03/11 06:38:42;;;;;;;11.88;8.38;;;;;;;-1.87;100.00;99462.03;6212212;23;20492;-63
2023/03/11 06:41:09;;;;;;;16.70;10.20;;;;;;;-1.88;100.00;99463.81;6211706;23;20111;-62
2023/03/11 06:43:36;;;;;;;14.77;9.15;;;;;;;-1.84;100.00;99476.75;6211506;23;20020;-62
2023/03/11 06:46:10;;;;;;;13.13;9.05;;;;;;;-1.95;100.00;99483.63;6211154;23;20084;-63
2023/03/11 06:48:38;;;;;;;16.38;8.93;;;;;;;-1.73;100.00;99497.84;6210864;23;20021;-62
2023/03/11 06:51:05;;;;;;;16.10;9.57;;;;;;;-1.69;100.00;99504.53;6211868;23;20095;-64
2023/03/11 06:53:32;;;;;;;16.90;10.02;;;;;;;-1.64;100.00;99516.41;6211385;23;20116;-62
2023/03/11 06:56:03;;;;;;;15.25;9.55;;;;;;;-1.59;100.00;99518.69;6211609;23;20020;-63
2023/03/11 06:58:31;;;;;;;20.92;10.65;;;;;;;-1.68;100.00;99516.72;6211142;23;20027;-63
2023/03/11 07:01:01;;;;;;;37.65;15.98;;;;;;;-1.79;100.00;99524.56;6185105;23;20047;-63
2023/03/11 07:03:29;;;;;;;12.60;6.67;;;;;;;-1.87;100.00;99536.47;6211549;23;20392;-63
2023/03/11 07:05:56;;;;;;;17.10;9.48;;;;;;;-1.74;100.00;99538.22;6211044;23;20023;-63
2023/03/11 07:08:24;;;;;;;14.70;9.07;;;;;;;-1.77;100.00;99543.72;6197088;23;20075;-63
2023/03/11 07:11:13;;;;;;;12.52;7.38;;;;;;;-1.71;100.00;99543.28;6186549;23;20024;-65
2023/03/11 07:13:40;;;;;;;16.60;8.02;;;;;;;-1.83;100.00;99552.03;6210429;23;20029;-61
2023/03/11 07:16:10;;;;;;;12.23;7.70;;;;;;;-1.64;100.00;99547.13;6211366;23;20025;-62
2023/03/11 07:18:36;;;;;;;13.63;8.15;;;;;;;-1.77;100.00;99564.75;6210817;23;20404;-63
2023/03/11 07:21:05;;;;;;;14.07;7.22;;;;;;;-1.85;100.00;99573.19;6211553;23;20100;-63
2023/03/11 07:23:33;;;;;;;13.88;7.20;;;;;;;-1.82;100.00;99583.44;6211803;23;20021;-63
2023/03/11 07:25:59;;;;;;;14.07;7.68;;;;;;;-1.80;100.00;99593.88;6210626;23;20025;-62
2023/03/11 07:28:27;;;;;;;16.83;8.32;;;;;;;-1.74;100.00;99596.06;6210830;23;20051;-63
2023/03/11 07:30:54;;;;;;;17.10;7.57;;;;;;;-1.70;100.00;99601.00;6208717;23;20111;-63
2023/03/11 07:33:22;;;;;;;12.68;7.32;;;;;;;-1.50;100.00;99604.00;6205556;23;20528;-63
2023/03/11 07:35:50;;;;;;;9.48;6.70;;;;;;;-1.29;100.00;99610.34;6212135;23;20027;-63
2023/03/11 07:38:17;;;;;;;14.60;7.22;;;;;;;-1.08;100.00;99618.44;6211605;23;20040;-64
2023/03/11 07:40:43;;;;;;;13.02;7.10;;;;;;;-1.15;100.00;99628.59;6211055;23;20099;-62
2023/03/11 07:43:09;;;;;;;18.20;7.38;;;;;;;-1.16;100.00;99623.41;6210411;23;20095;-64
2023/03/11 07:45:36;;;;;;;12.43;7.18;;;;;;;-1.38;100.00;99632.03;6210529;23;20048;-61
2023/03/11 07:48:03;;;;;;;13.32;6.75;;;;;;;-1.53;100.00;99641.03;6210262;23;20027;-62
2023/03/11 07:50:30;;;;;;;12.88;6.80;;;;;;;-1.17;100.00;99651.53;6209618;23;20028;-62
2023/03/11 07:52:56;;;;;;;10.07;6.88;;;;;;;-0.97;100.00;99646.63;6208802;23;20025;-64
2023/03/11 07:55:23;;;;;;;10.80;6.85;;;;;;;-0.92;100.00;99658.50;6211516;23;20476;-62
2023/03/11 07:57:50;;;;;;;13.43;6.38;;;;;;;-0.93;100.00;99661.22;6211613;23;20092;-64
2023/03/11 08:00:17;;;;;;;11.80;6.75;;;;;;;-0.75;100.00;99667.75;6211831;23;20091;-61
2023/03/11 08:02:44;;;;;;;13.23;5.82;;;;;;;-0.99;100.00;99675.69;6210477;23;20103;-61
2023/03/11 08:05:10;;;;;;;7.68;5.65;;;;;;;-1.15;100.00;99683.03;6208595;23;20397;-63
2023/03/11 08:07:37;;;;;;;9.18;5.95;;;;;;;-0.93;100.00;99687.56;6210497;23;20024;-62
2023/03/11 08:10:04;;;;;;;9.07;5.90;;;;;;;-0.50;100.00;99687.88;6210219;23;20027;-63
2023/03/11 08:12:30;;;;;;;9.40;6.22;;;;;;;-0.12;100.00;99693.81;6209579;23;20034;-62
2023/03/11 08:14:57;;;;;;;12.65;5.85;;;;;;;-0.27;100.00;99703.75;6210577;23;20040;-64
2023/03/11 08:17:23;;;;;;;10.63;5.57;;;;;;;-0.06;100.00;99698.63;6184234;23;20031;-64
2023/03/11 08:19:50;;;;;;;10.25;5.93;;;;;;;0.07;100.00;99711.72;6211201;23;20020;-63
2023/03/11 08:22:16;;;;;;;8.65;5.20;;;;;;;-0.11;100.00;99717.44;6211017;23;20016;-63
2023/03/11 08:24:43;;;;;;;10.48;6.28;;;;;;;-0.06;100.00;99725.84;6210303;23;20103;-61
2023/03/11 08:27:11;;;;;;;10.43;5.93;;;;;;;-0.00;100.00;99716.63;6210216;23;20016;-61
2023/03/11 08:29:37;;;;;;;12.88;5.85;;;;;;;0.45;100.00;99732.50;6211036;23;20043;-62
2023/03/11 08:32:04;;;;;;;13.55;8.32;;;;;;;0.51;100.00;99745.22;6209918;23;20111;-62
2023/03/11 08:34:31;;;;;;;9.55;5.97;;;;;;;0.33;100.00;99750.16;6201437;23;20466;-61
2023/03/11 08:36:58;;;;;;;10.52;5.75;;;;;;;0.32;100.00;99752.88;6210310;23;20396;-62
2023/03/11 08:39:24;;;;;;;16.25;7.18;;;;;;;0.49;100.00;99749.78;6211259;23;20027;-62
2023/03/11 08:41:51;;;;;;;9.40;5.53;;;;;;;0.45;100.00;99759.72;6209821;23;20023;-62
2023/03/11 08:44:17;;;;;;;7.90;5.18;;;;;;;-0.16;100.00;99766.19;6210005;23;20095;-64
2023/03/11 08:46:44;;;;;;;10.05;5.65;;;;;;;-0.21;100.00;99771.81;6209628;23;20450;-62
2023/03/11 08:49:11;;;;;;;9.10;5.07;;;;;;;-0.09;100.00;99772.69;6210031;23;20468;-63
2023/03/11 08:51:37;;;;;;;9.80;5.82;;;;;;;0.16;100.00;99779.59;6209984;23;20330;-61
2023/03/11 08:54:04;;;;;;;9.73;5.93;;;;;;;0.13;100.00;99785.13;6209431;23;20026;-65
2023/03/11 08:56:31;;;;;;;9.23;5.85;;;;;;;-0.34;100.00;99795.59;6208426;23;20429;-63
2023/03/11 08:58:58;;;;;;;14.65;5.97;;;;;;;-0.17;100.00;99789.09;6210187;23;20532;-62
2023/03/11 09:01:24;;;;;;;11.05;5.90;;;;;;;-0.20;100.00;99795.41;6211094;23;20024;-63
2023/03/11 09:03:51;;;;;;;7.15;4.50;;;;;;;-0.38;100.00;99803.84;6211147;23;20025;-62
2023/03/11 09:06:18;;;;;;;10.32;5.57;;;;;;;-0.12;100.00;99805.41;6206864;23;20024;-64
2023/03/11 09:08:46;;;;;;;9.02;5.93;;;;;;;-0.22;100.00;99812.31;6209920;23;20031;-62
2023/03/11 09:11:14;;;;;;;12.85;5.80;;;;;;;-0.23;100.00;99826.44;6209837;23;20091;-61
2023/03/11 09:13:41;;;;;;;12.77;6.80;;;;;;;-0.06;100.00;99820.75;6210105;23;20043;-61
2023/03/11 09:16:13;;;;;;;12.70;6.50;;;;;;;-0.22;100.00;99828.13;6207601;23;20454;-61
2023/03/11 09:18:39;;;;;;;;;;;;;;;-0.18;100.00;99832.22;6210519;23;20020;-61
2023/03/11 09:21:06;;;;;;;13.27;6.35;;;;;;;-0.19;100.00;99830.56;6209675;23;19920;-65
2023/03/11 09:23:33;;;;;;;15.10;7.63;;;;;;;-0.07;100.00;99832.25;6209993;23;20028;-63
2023/03/11 09:25:59;;;;;;;11.20;6.20;;;;;;;0.24;100.00;99835.25;6208486;23;20017;-62
2023/03/11 09:28:26;;;;;;;14.40;7.07;;;;;;;0.81;100.00;99839.66;6209564;23;20024;-67
2023/03/11 09:30:52;;;;;;;8.88;6.28;;;;;;;0.93;100.00;99835.22;6211247;23;20021;-62
2023/03/11 09:33:19;;;;;;;8.02;5.55;;;;;;;0.68;100.00;99841.59;6209832;23;20024;-62
2023/03/11 09:35:45;;;;;;;10.02;5.90;;;;;;;0.81;100.00;99844.94;6210153;23;20026;-61
2023/03/11 09:38:12;;;;;;;9.48;5.95;;;;;;;0.59;100.00;99852.84;6209757;23;20022;-62
2023/03/11 09:40:51;;;;;;;9.35;6.45;;;;;;;0.19;100.00;99854.06;6209900;23;20356;-64
2023/03/11 09:43:57;;;;;;;9.30;5.80;;;;;;;-0.10;100.00;99858.84;6209780;23;20112;-61
2023/03/11 09:46:35;;;;;;;9.57;6.07;;;;;;;-0.22;100.00;99862.41;6090468;23;20095;-60
2023/03/11 09:49:08;;;;;;;13.60;7.05;;;;;;;-0.52;100.00;99871.56;6209374;23;20021;-61
2023/03/11 09:51:42;;;;;;;12.40;7.28;;;;;;;-0.65;100.00;99876.00;6209814;23;20404;-63
2023/03/11 09:54:10;;;;;;;13.38;7.28;;;;;;;-0.42;100.00;99885.75;6210846;23;20059;-61
2023/03/11 09:56:38;;;;;;;13.20;7.10;;;;;;;-0.49;100.00;99892.44;6210323;23;20028;-63
2023/03/11 09:59:15;;;;;;;9.98;7.20;;;;;;;-0.53;100.00;99892.75;6209421;23;20056;-62
2023/03/11 10:01:45;;;;;;;12.32;7.70;;;;;;;-0.71;100.00;99900.16;6210949;23;20025;-63
2023/03/11 10:04:19;;;;;;;13.07;7.15;;;;;;;-0.78;100.00;99905.03;6209523;23;20091;-61
2023/03/11 10:06:46;;;;;;;10.85;7.47;;;;;;;-0.75;100.00;99907.44;6210367;23;20045;-61
2023/03/11 10:09:37;;;;;;;14.38;9.18;;;;;;;-0.69;100.00;99917.53;6209964;23;20024;-65
2023/03/11 10:12:08;;;;;;;;;;;;;;;-0.67;100.00;99917.44;6209930;23;20354;-65
2023/03/11 10:14:53;;;;;;;13.60;8.88;;;;;;;-0.86;100.00;99919.66;6207696;23;19916;-63
2023/03/11 10:17:33;;;;;;;13.27;8.93;;;;;;;-0.85;100.00;99918.72;6208819;23;20028;-65
2023/03/11 10:20:13;;;;;;;14.00;9.10;;;;;;;-1.07;100.00;99927.25;6208946;23;20024;-64
2023/03/11 10:22:59;;;;;;;16.85;8.57;;;;;;;-0.82;100.00;99921.13;6210019;23;20075;-64
2023/03/11 10:25:53;;;;;;;14.60;9.73;;;;;;;-0.70;100.00;99936.94;6209420;23;20012;-63
2023/03/11 10:28:25;;;;;;;12.68;9.45;;;;;;;-0.69;100.00;99937.78;6208055;23;20107;-65
2023/03/11 10:31:19;;;;;;;13.80;9.95;;;;;;;-0.40;100.00;99938.34;6210203;23;20425;-61
2023/03/11 10:33:51;;;;;;;16.48;10.23;;;;;;;-0.22;100.00;99946.75;6210046;23;20037;-71
2023/03/11 10:36:26;;;;;;;14.75;10.48;;;;;;;0.11;100.00;99946.09;6209792;23;20099;-71
2023/03/11 10:38:54;;;;;;;12.75;9.18;;;;;;;0.37;100.00;99948.63;6210104;23;20389;-71
2023/03/11 10:41:30;;;;;;;15.07;9.30;;;;;;;0.01;100.00;99953.00;6210004;23;20028;-70
2023/03/11 10:44:04;;;;;;;13.60;9.10;;;;;;;0.13;100.00;99954.75;6209248;23;20021;-70
2023/03/11 10:46:31;;;;;;;14.65;9.65;;;;;;;-0.02;100.00;99964.63;6207917;23;20418;-71
2023/03/11 10:48:58;;;;;;;14.00;9.25;;;;;;;0.11;100.00;99963.72;6181873;23;20414;-71
2023/03/11 10:51:33;;;;;;;14.68;9.63;;;;;;;0.12;100.00;99957.47;6208447;23;20029;-71
2023/03/11 10:54:02;;;;;;;16.95;10.52;;;;;;;0.17;100.00;99968.56;6209356;23;20453;-71
2023/03/11 10:56:37;;;;;;;18.15;10.98;;;;;;;0.00;100.00;99970.59;6209044;23;20055;-72
2023/03/11 10:59:21;;;;;;;16.08;10.63;;;;;;;-0.28;100.00;99973.53;6208317;23;20075;-70
2023/03/11 11:01:59;;;;;;;15.15;10.40;;;;;;;-0.53;100.00;99970.00;6210242;23;20348;-74
2023/03/11 11:04:34;;;;;;;16.02;11.05;;;;;;;-0.58;100.00;99984.44;6207987;23;20027;-74
2023/03/11 11:07:21;;;;;;;16.65;11.15;;;;;;;-0.42;100.00;99982.44;6211443;23;20031;-72
2023/03/11 11:10:10;;;;;;;15.88;11.30;;;;;;;-0.27;100.00;99988.41;6209043;23;20395;-72
2023/03/11 11:12:50;;;;;;;16.80;11.43;;;;;;;-0.36;100.00;99989.03;6210670;23;20023;-71
2023/03/11 11:15:28;;;;;;;16.42;12.10;;;;;;;-0.21;100.00;99988.81;6183623;23;20044;-68
2023/03/11 11:17:58;;;;;;;17.77;11.05;;;;;;;-0.44;100.00;99989.59;6210457;23;20028;-67
2023/03/11 11:20:27;;;;;;;18.75;12.15;;;;;;;-0.32;100.00;99993.16;6209147;23;20032;-72
2023/03/11 11:22:56;;;;;;;17.70;12.57;;;;;;;-0.26;100.00;99988.31;6210938;23;20012;-71
2023/03/11 11:25:35;;;;;;;17.33;11.85;;;;;;;-0.62;100.00;99999.63;6210274;23;20079;-71
2023/03/11 11:28:17;;;;;;;16.42;11.20;;;;;;;-0.42;100.00;99996.44;6210117;23;20473;-71